Terminal Aerodrome Forecast
Issued by NWS

Home | Current Version | Previous Version | Text Only | Print | Product List | Glossary On
Versions: 1 2 3 4 5 6 7 8 9 10 11 12 13 14 15 16 17 18 19 20 21 22 23 24 25 26 27 28 29 30 31 32 33 34 35 36 37
000
FTUS41 KRNK 251332 AAA
TAFLWB
TAF AMD
KLWB 251332Z 2514/2612 29005KT P6SM -SHRA SCT025 OVC050
     FM251700 24006KT P6SM VCSH SCT025 OVC045
     FM251900 25010G18KT P6SM OVC040
     FM252300 28006KT P6SM SCT050 BKN150=

USA.gov is the U.S. government's official web portal to all federal, state and local government web resources and services.